Flight Track Log - Related Links

Times and Time Zones

All times are in EST time to prevent confusion due to time zone crossing. See the SWA484 flight status page for this flight to view local times or setup timezone preferences in your user account.

Time Position Orientation Groundspeed Altitude Reporting Facility
EST Latitude Longitude Course Direction KTS MPH feet Rate Location/Type
Tue 12:09:06 PM 33.4333 -111.9833 90° East 170 196 2,000  Level Phoenix TRACON
Tue 12:10:06 PM 33.4333 -111.9333 90° East 195 224 4,000 2,296 Climbing Phoenix TRACON
Tue 12:11:01 PM 33.4333 -111.8667 90° East 247 284 6,400 2,849 Climbing Phoenix TRACON
Tue 12:12:25 PM 33.5114 -111.7778 44° Northeast 301 346 10,600 2,795 Climbing Albuquerque Center
Tue 12:13:27 PM 33.5986 -111.7719 North 317 365 13,200 2,565 Climbing Albuquerque Center
Tue 12:14:29 PM 33.6983 -111.7619 North 355 409 15,900 2,806 Climbing Albuquerque Center
Tue 12:15:31 PM 33.8167 -111.7506 North 373 429 19,000 2,661 Climbing Albuquerque Center
Tue 12:16:33 PM 33.9222 -111.7400 North 381 438 21,400 2,177 Climbing Albuquerque Center
Tue 12:17:35 PM 34.0450 -111.7278 North 407 468 23,500 1,984 Climbing Albuquerque Center
Tue 12:18:37 PM 34.1586 -111.6853 17° North 427 491 25,500 1,694 Climbing Albuquerque Center
Tue 12:19:39 PM 34.2511 -111.6058 35° Northeast 454 522 27,000 1,403 Climbing Albuquerque Center
Tue 12:20:41 PM 34.3472 -111.4972 43° Northeast 469 540 28,400 1,500 Climbing Albuquerque Center
Tue 12:21:43 PM 34.4644 -111.3592 44° Northeast 486 559 30,100 1,500 Climbing Albuquerque Center
Tue 12:22:45 PM 34.5642 -111.2400 45° Northeast 498 573 31,500 1,597 Climbing Albuquerque Center
Tue 12:23:47 PM 34.6642 -111.1228 44° Northeast 501 577 33,400 1,500 Climbing Albuquerque Center
Tue 12:24:49 PM 34.7611 -111.0058 45° Northeast 494 568 34,600 1,258 Climbing Albuquerque Center
Tue 12:25:51 PM 34.8619 -110.8894 43° Northeast 499 574 36,000 1,113 Climbing Albuquerque Center
Tue 12:26:53 PM 34.9592 -110.7706 45° Northeast 496 571 36,900 484 Climbing Albuquerque Center
Tue 12:27:55 PM 35.0781 -110.6294 44° Northeast 498 573 37,000 48 Climbing Albuquerque Center
Tue 12:28:57 PM 35.1725 -110.5158 45° Northeast 498 573 37,000  Level Albuquerque Center
Tue 12:29:59 PM 35.2828 -110.3825 45° Northeast 499 574 37,000  Level Albuquerque Center
Tue 12:31:01 PM 35.3758 -110.2658 46° Northeast 499 574 37,000  Level Albuquerque Center
Tue 12:32:03 PM 35.4872 -110.1319 44° Northeast 500 575 37,000  Level Albuquerque Center
Tue 12:33:06 PM 35.5808 -110.0175 45° Northeast 498 573 37,000  Level Albuquerque Center
Tue 12:34:08 PM 35.6894 -109.8839 45° Northeast 495 570 37,000  Level Albuquerque Center
Tue 12:35:10 PM 35.7833 -109.7692 45° Northeast 494 568 37,000  Level Albuquerque Center
Tue 12:36:12 PM 35.8917 -109.6344 45° Northeast 494 568 37,000  Level Albuquerque Center
Tue 12:36:50 PM 35.9544 -109.5575 45° Northeast 496 571 37,000  Level Denver Center
Tue 12:37:52 PM 36.0483 -109.4411 45° Northeast 497 572 37,000  Level Denver Center
Tue 12:38:54 PM 36.1417 -109.3250 45° Northeast 494 568 37,000  Level Denver Center
Tue 12:39:56 PM 36.2514 -109.1869 45° Northeast 497 572 37,000  Level Denver Center
Tue 12:40:58 PM 36.3458 -109.0694 45° Northeast 497 572 37,000  Level Denver Center
Tue 12:42:00 PM 36.4533 -108.9322 46° Northeast 492 566 37,000  Level Denver Center
Tue 12:43:02 PM 36.5453 -108.8156 46° Northeast 491 565 37,000  Level Denver Center
Tue 12:44:04 PM 36.6367 -108.6997 45° Northeast 489 563 37,000  Level Denver Center
Tue 12:45:06 PM 36.7422 -108.5633 46° Northeast 488 562 37,000  Level Denver Center
Tue 12:46:08 PM 36.8331 -108.4478 45° Northeast 487 560 37,000  Level Denver Center
Tue 12:47:10 PM 36.9386 -108.3122 46° Northeast 486 559 37,000  Level Denver Center
Tue 12:48:12 PM 37.0286 -108.1944 46° Northeast 487 560 37,000  Level Denver Center
Tue 12:49:14 PM 37.1336 -108.0597 46° Northeast 485 558 37,000  Level Denver Center
Tue 12:50:17 PM 37.2242 -107.9431 46° Northeast 486 559 37,000  Level Denver Center
Tue 12:51:19 PM 37.3272 -107.8072 46° Northeast 482 555 37,000  Level Denver Center
Tue 12:52:21 PM 37.4172 -107.6942 45° Northeast 479 551 37,000  Level Denver Center
Tue 12:53:23 PM 37.5208 -107.5531 47° Northeast 487 560 37,000  Level Denver Center
Tue 12:54:25 PM 37.6094 -107.4322 47° Northeast 490 564 37,000  Level Denver Center
Tue 12:55:27 PM 37.7161 -107.2950 45° Northeast 490 564 37,000  Level Denver Center
Tue 12:56:29 PM 37.8056 -107.1750 47° Northeast 490 564 37,000  Level Denver Center
Tue 12:57:31 PM 37.9097 -107.0353 47° Northeast 494 568 37,000  Level Denver Center
Tue 12:58:45 PM 38.0003 -106.9125 47° Northeast 498 573 37,000  Level Denver Center
Tue 12:59:47 PM 38.1219 -106.7483 47° Northeast 500 575 37,000  Level Denver Center
Tue 01:00:50 PM 38.2125 -106.6239 47° Northeast 501 577 37,000  Level Denver Center
Tue 01:01:52 PM 38.3181 -106.4906 45° Northeast 498 573 37,000  Level Denver Center
Tue 01:02:54 PM 38.4181 -106.3678 44° Northeast 501 577 37,000  Level Denver Center
Tue 01:03:56 PM 38.5144 -106.2467 44° Northeast 490 564 37,000 -242 Level Denver Center
Tue 01:04:58 PM 38.6289 -106.1028 44° Northeast 494 568 36,500 -1,548 Descending Denver Center
Tue 01:06:00 PM 38.7258 -105.9822 44° Northeast 488 562 33,800 -2,613 Descending Denver Center
Tue 01:07:02 PM 38.8219 -105.8603 45° Northeast 487 560 31,100 -2,468 Descending Denver Center
Tue 01:08:04 PM 38.9161 -105.7408 45° Northeast 480 552 28,700 -2,323 Descending Denver Center
Tue 01:09:06 PM 39.0136 -105.6153 45° Northeast 460 529 26,300 -2,177 Descending Denver Center
Tue 01:10:08 PM 39.0964 -105.5100 45° Northeast 442 509 24,200 -1,887 Descending Denver Center
Tue 01:11:10 PM 39.1844 -105.3975 45° Northeast 419 482 22,400 -1,403 Descending Denver Center
Tue 01:12:12 PM 39.2650 -105.2983 44° Northeast 378 435 21,300 -1,306 Descending Denver Center
Tue 01:13:14 PM 39.3406 -105.2225 38° Northeast 348 400 19,700 -1,597 Descending Denver Center
Tue 01:14:16 PM 39.4200 -105.1453 37° Northeast 335 386 18,000 -1,306 Descending Denver Center
Tue 01:15:18 PM 39.4944 -105.0725 37° Northeast 336 387 17,000 -581 Descending Denver Center
Tue 01:16:20 PM 39.5736 -104.9958 37° Northeast 331 381 16,800 -816 Descending Denver Center
Tue 01:17:23 PM 39.6464 -104.9233 37° Northeast 331 381 15,300 -1,536 Descending Denver Center
Tue 01:18:25 PM 39.7231 -104.8486 37° Northeast 347 399 13,600 -1,597 Descending Denver Center
Tue 01:19:27 PM 39.8114 -104.8403 North 296 341 12,000 -1,161 Descending Denver Center
Tue 01:20:29 PM 39.8894 -104.8392 North 276 318 11,200 -662 Descending Denver Center
Tue 01:21:43 PM 39.9586 -104.8386 360° North 249 287 10,500 -1,147 Descending Denver Center
Tue 01:22:45 PM 40.0469 -104.8256 North 248 285 8,600 -1,306 Descending Denver Center
Tue 01:23:47 PM 40.0728 -104.7547 64° Northeast 256 295 7,800 -774 Descending Denver Center
Tue 01:24:49 PM 40.0203 -104.7100 147° Southeast 224 258 7,000 -484 Descending Denver Center
Tue 01:25:51 PM 39.9650 -104.6953 168° South 184 212 6,800 -581 Descending Denver Center
Tue 01:26:53 PM 39.9178 -104.6958 181° South 172 198 5,800 -720 Descending Denver Center
Tue 01:27:56 PM 39.8733 -104.6961 180° South 163 188 5,300 -476 Descending Denver Center
Tue 01:29:00 PM 39.8617 -104.6732 180° South  Level Estimated
Tue 01:36:00 PM 39.8617 -104.6732 180° South  Level Estimated
Tue 01:37:00 PM 39.8617 -104.6732 180° South  Level Estimated
Tue 01:38:00 PM 39.8617 -104.6732 180° South  Level Estimated

Login

Don't have an account? Register now (free) for customized features, flight alerts, and more!